createdAt,value
2023-02-24T00:00:38.813Z,97.98
2023-02-24T00:05:38.696Z,97.88
2023-02-24T00:10:38.619Z,98.18
2023-02-24T00:15:38.588Z,98.29
2023-02-24T00:20:38.496Z,98.29
2023-02-24T00:25:38.441Z,98.39
2023-02-24T00:30:38.361Z,98.08
2023-02-24T00:35:38.308Z,97.41
2023-02-24T00:40:38.234Z,97.10
2023-02-24T00:45:38.179Z,97.00
2023-02-24T00:50:38.109Z,96.69
2023-02-24T00:55:38.054Z,97.00
2023-02-24T01:00:37.982Z,97.00
2023-02-24T01:05:37.932Z,97.14
2023-02-24T01:10:37.846Z,97.04
2023-02-24T01:15:37.800Z,97.45
2023-02-24T01:20:37.714Z,97.45
2023-02-24T01:25:37.667Z,97.66
2023-02-24T01:30:37.585Z,97.66
2023-02-24T01:35:37.538Z,97.55
2023-02-24T01:40:37.458Z,98.07
2023-02-24T01:45:37.410Z,98.22
2023-02-24T01:50:37.339Z,98.42
2023-02-24T01:55:37.281Z,98.52
2023-02-24T02:00:37.220Z,98.52
2023-02-24T02:05:37.144Z,98.42
2023-02-24T02:10:37.082Z,98.73
2023-02-24T02:15:37.077Z,98.94
2023-02-24T02:20:36.968Z,99.14
2023-02-24T02:25:36.881Z,98.88
2023-02-24T02:30:36.839Z,95.73
2023-02-24T02:35:36.770Z,94.85
2023-02-24T02:40:36.677Z,94.38
2023-02-24T02:45:36.652Z,94.28
2023-02-24T02:50:36.552Z,93.91
2023-02-24T02:55:36.488Z,94.32
2023-02-24T03:00:36.410Z,93.60
2023-02-24T03:05:36.354Z,93.13
2023-02-24T03:10:36.290Z,92.41
2023-02-24T03:15:36.221Z,92.04
2023-02-24T03:20:36.160Z,91.52
2023-02-24T03:25:36.092Z,91.46
2023-02-24T03:30:36.089Z,91.77
2023-02-24T03:35:35.961Z,91.77
2023-02-24T03:40:35.938Z,91.46
2023-02-24T03:45:35.838Z,91.35
2023-02-24T03:50:35.757Z,91.56
2023-02-24T03:55:35.699Z,91.46
2023-02-24T04:00:35.634Z,91.46
2023-02-24T04:05:35.571Z,91.56
2023-02-24T04:10:35.492Z,92.12
2023-02-24T04:15:35.449Z,91.91
2023-02-24T04:20:35.362Z,91.91
2023-02-24T04:25:35.296Z,91.91
2023-02-24T04:30:35.409Z,91.60
2023-02-24T04:35:35.167Z,91.50
2023-02-24T04:40:35.108Z,91.09
2023-02-24T04:46:12.575Z,91.40
2023-02-24T04:50:34.990Z,91.29
2023-02-24T04:55:34.915Z,91.50
2023-02-24T05:00:34.853Z,91.33
2023-02-24T05:05:34.773Z,92.06
2023-02-24T05:10:34.716Z,91.85
2023-02-24T05:15:34.645Z,91.65
2023-02-24T05:20:34.584Z,91.65
2023-02-24T05:25:34.510Z,91.96
2023-02-24T05:30:34.508Z,92.27
2023-02-24T05:35:34.378Z,92.78
2023-02-24T05:40:34.316Z,92.99
2023-02-24T05:45:34.249Z,92.88
2023-02-24T05:50:34.183Z,92.72
2023-02-24T05:55:34.120Z,92.21
2023-02-24T06:00:34.054Z,91.69
2023-02-24T06:05:33.994Z,91.17
2023-02-24T06:10:33.925Z,90.76
2023-02-24T06:15:33.853Z,90.45
2023-02-24T06:20:33.788Z,90.76
2023-02-24T06:25:33.712Z,91.27
2023-02-24T06:30:33.744Z,91.07
2023-02-24T06:35:33.583Z,91.07
2023-02-24T06:40:33.526Z,90.76
2023-02-24T06:45:33.456Z,91.38
2023-02-24T06:50:33.394Z,91.94
2023-02-24T06:55:33.327Z,92.35
2023-02-24T07:00:33.269Z,92.87
2023-02-24T07:05:33.185Z,93.49
2023-02-24T07:10:33.145Z,93.38
2023-02-24T07:15:33.053Z,93.45
2023-02-24T07:20:32.990Z,92.97
2023-02-24T07:25:32.915Z,93.34
2023-02-24T07:30:33.013Z,93.45
2023-02-24T07:35:32.784Z,95.31
2023-02-24T07:40:32.730Z,94.54
2023-02-24T07:45:32.727Z,93.15
2023-02-24T07:50:32.605Z,91.97
2023-02-24T07:55:32.515Z,90.80
2023-02-24T08:00:32.462Z,89.35
2023-02-24T08:05:32.414Z,89.25
2023-02-24T08:10:32.328Z,89.56
2023-02-24T08:15:32.269Z,88.69
2023-02-24T08:20:32.184Z,91.54
2023-02-24T08:25:32.110Z,90.16
2023-02-24T08:30:32.159Z,86.82
2023-02-24T08:35:31.987Z,85.89
2023-02-24T08:40:31.940Z,85.72
2023-02-24T08:45:31.850Z,86.55
2023-02-24T08:50:31.793Z,85.93
2023-02-24T08:55:31.736Z,86.49
2023-02-24T09:00:31.712Z,86.59
2023-02-24T09:05:31.595Z,87.23
2023-02-24T09:10:31.557Z,85.79
2023-02-24T09:15:31.463Z,84.88
2023-02-24T09:20:31.424Z,83.78
2023-02-24T09:25:31.331Z,82.30
2023-02-24T09:30:31.347Z,80.62
2023-02-24T09:35:31.202Z,76.06
2023-02-24T09:40:31.157Z,70.91
2023-02-24T09:45:31.175Z,67.28
2023-02-24T09:50:55.428Z,69.04
2023-02-24T09:55:32.021Z,69.86
2023-02-24T10:00:30.891Z,69.51
2023-02-24T10:05:30.806Z,71.28
2023-02-24T10:10:30.784Z,72.78
2023-02-24T10:15:30.675Z,70.88
2023-02-24T10:20:30.648Z,66.57
2023-02-24T10:25:30.546Z,65.25
2023-02-24T10:30:30.606Z,63.33
2023-02-24T10:35:30.412Z,65.46
2023-02-24T10:40:30.353Z,65.69
2023-02-24T10:45:34.835Z,67.79
2023-02-24T10:50:32.304Z,68.90
2023-02-24T10:55:30.154Z,69.34
2023-02-24T11:00:30.102Z,70.94
2023-02-24T11:05:30.013Z,71.79
2023-02-24T11:10:29.998Z,72.24
2023-02-24T11:15:29.899Z,73.26
2023-02-24T11:20:46.456Z,74.49
2023-02-24T11:25:30.788Z,73.84
2023-02-24T11:30:29.803Z,74.56
2023-02-24T11:35:29.617Z,78.05
2023-02-24T11:40:29.566Z,75.55
2023-02-24T11:45:29.493Z,74.73
2023-02-24T11:50:29.436Z,73.63
2023-02-24T11:55:29.358Z,73.22
2023-02-24T12:00:29.318Z,73.12
2023-02-24T12:05:29.288Z,73.57
2023-02-24T12:10:29.172Z,73.57
2023-02-24T12:15:29.095Z,74.59
2023-02-24T12:20:29.040Z,73.46
2023-02-24T12:25:28.964Z,74.18
2023-02-24T12:30:28.951Z,73.33
2023-02-24T12:35:28.830Z,71.11
2023-02-24T12:40:28.777Z,71.52
2023-02-24T12:45:28.711Z,72.33
2023-02-24T12:50:28.634Z,71.92
2023-02-24T12:55:28.564Z,72.16
2023-02-24T13:00:28.502Z,70.93
2023-02-24T13:05:28.436Z,69.70
2023-02-24T13:10:28.374Z,75.35
2023-02-24T13:15:28.309Z,71.48
2023-02-24T13:20:28.238Z,69.98
2023-02-24T13:25:28.173Z,71.48
2023-02-24T13:30:28.140Z,71.72
2023-02-24T13:35:28.140Z,74.32
2023-02-24T13:40:27.998Z,76.31
2023-02-24T13:45:27.905Z,77.44
2023-02-24T13:50:27.849Z,78.61
2023-02-24T13:55:27.778Z,79.68
2023-02-24T14:00:27.720Z,80.02
2023-02-24T14:05:27.648Z,81.36
2023-02-24T14:10:27.618Z,82.49
2023-02-24T14:15:27.556Z,83.52
2023-02-24T14:20:27.459Z,83.66
2023-02-24T14:25:27.406Z,84.63
2023-02-24T14:30:27.349Z,85.15
2023-02-24T14:35:27.471Z,85.97
2023-02-24T14:40:27.208Z,86.15
2023-02-24T14:45:27.143Z,87.91
2023-02-24T14:50:27.092Z,88.73
2023-02-24T14:55:27.006Z,88.73
2023-02-24T15:00:26.957Z,88.84
2023-02-24T15:05:26.877Z,89.91
2023-02-24T15:10:26.806Z,89.08
2023-02-24T15:15:26.734Z,90.16
2023-02-24T15:20:26.682Z,90.20
2023-02-24T15:25:37.127Z,92.16
2023-02-24T15:30:27.583Z,92.58
2023-02-24T15:35:26.466Z,92.52
2023-02-24T15:40:26.423Z,91.48
2023-02-24T15:45:26.367Z,91.11
2023-02-24T15:50:26.276Z,91.83
2023-02-24T15:55:26.215Z,92.50
2023-02-24T16:00:26.165Z,93.12
2023-02-24T16:05:26.086Z,92.75
2023-02-24T16:10:26.020Z,92.85
2023-02-24T16:15:25.960Z,93.82
2023-02-24T16:20:25.876Z,94.03
2023-02-24T16:25:25.801Z,94.28
2023-02-24T16:30:25.851Z,94.39
2023-02-24T16:35:25.675Z,95.11
2023-02-24T16:40:25.613Z,95.01
2023-02-24T16:45:25.542Z,95.22
2023-02-24T16:50:25.485Z,95.05
2023-02-24T16:55:25.412Z,95.47
2023-02-24T17:00:25.356Z,95.47
2023-02-24T17:05:25.333Z,96.19
2023-02-24T17:10:25.245Z,95.98
2023-02-24T17:15:25.167Z,96.09
2023-02-24T17:20:25.098Z,96.30
2023-02-24T17:25:25.140Z,96.09
2023-02-24T17:30:24.969Z,96.19
2023-02-24T17:35:24.903Z,96.19
2023-02-24T17:40:24.843Z,96.40
2023-02-24T17:45:24.759Z,95.84
2023-02-24T17:50:24.714Z,95.53
2023-02-24T17:55:24.629Z,95.32
2023-02-24T18:00:24.583Z,95.11
2023-02-24T18:05:24.495Z,94.76
2023-02-24T18:10:24.444Z,94.14
2023-02-24T18:15:24.362Z,93.93
2023-02-24T18:20:24.321Z,93.51
2023-02-24T18:25:24.236Z,93.31
2023-02-24T18:30:24.179Z,92.59
2023-02-24T18:35:24.112Z,92.99
2023-02-24T18:40:24.064Z,92.79
2023-02-24T18:45:23.987Z,93.10
2023-02-24T18:50:23.928Z,92.59
2023-02-24T18:55:23.859Z,92.07
2023-02-24T19:00:23.863Z,92.69
2023-02-24T19:05:24.949Z,92.07
2023-02-24T19:10:23.681Z,92.23
2023-02-24T19:15:23.805Z,91.76
2023-02-24T19:20:23.856Z,91.82
2023-02-24T19:25:23.470Z,91.76
2023-02-24T19:30:23.427Z,92.17
2023-02-24T19:35:23.338Z,92.48
2023-02-24T19:40:23.283Z,92.07
2023-02-24T19:45:23.208Z,91.44
2023-02-24T19:50:23.153Z,91.51
2023-02-24T19:55:23.138Z,91.61
2023-02-24T20:00:23.037Z,91.30
2023-02-24T20:05:22.957Z,90.99
2023-02-24T20:10:22.904Z,90.99
2023-02-24T20:15:22.872Z,90.88
2023-02-24T20:20:22.950Z,90.99
2023-02-24T20:25:22.723Z,91.44
2023-02-24T20:30:22.642Z,91.55
2023-02-24T20:35:22.704Z,91.76
2023-02-24T20:40:22.514Z,91.34
2023-02-24T20:45:22.445Z,91.76
2023-02-24T20:50:22.388Z,91.55
2023-02-24T20:55:22.320Z,91.24
2023-02-24T21:00:22.277Z,91.34
2023-02-24T21:05:22.185Z,91.44
2023-02-24T21:10:22.141Z,91.34
2023-02-24T21:15:22.063Z,91.24
2023-02-24T21:20:22.038Z,91.03
2023-02-24T21:25:21.998Z,90.93
2023-02-24T21:30:21.876Z,91.55
2023-02-24T21:35:21.798Z,92.17
2023-02-24T21:40:21.736Z,92.79
2023-02-24T21:45:21.668Z,92.59
2023-02-24T21:50:21.610Z,92.17
2023-02-24T21:55:21.537Z,92.17
2023-02-24T22:00:21.485Z,92.27
2023-02-24T22:05:21.407Z,92.59
2023-02-24T22:10:21.350Z,92.38
2023-02-24T22:15:21.280Z,92.23
2023-02-24T22:20:21.230Z,92.44
2023-02-24T22:25:21.149Z,92.38
2023-02-24T22:30:21.105Z,92.48
2023-02-24T22:35:21.028Z,92.99
2023-02-24T22:40:20.983Z,93.10
2023-02-24T22:45:20.897Z,93.62
2023-02-24T22:50:20.845Z,93.51
2023-02-24T22:55:20.765Z,93.62
2023-02-24T23:00:20.720Z,92.79
2023-02-24T23:05:20.644Z,92.38
2023-02-24T23:10:20.598Z,91.90
2023-02-24T23:15:20.520Z,92.21
2023-02-24T23:20:20.460Z,92.32
2023-02-24T23:25:20.385Z,92.21
2023-02-24T23:30:20.418Z,91.69
2023-02-24T23:35:20.355Z,91.69
2023-02-24T23:40:20.344Z,91.59
2023-02-24T23:45:20.371Z,91.38
2023-02-24T23:50:20.373Z,91.80
2023-02-24T23:55:20.443Z,91.49
